createdAt,value
2022-08-04T00:02:20.324Z,101200.78
2022-08-04T00:04:56.055Z,101209.56
2022-08-04T00:07:44.196Z,101205.31
2022-08-04T00:10:11.793Z,101202.63
2022-08-04T00:12:45.428Z,101210.56
2022-08-04T00:15:16.478Z,101206.91
2022-08-04T00:17:49.798Z,101207.91
2022-08-04T00:20:19.263Z,101206.72
2022-08-04T00:22:47.627Z,101209.44
2022-08-04T00:25:14.783Z,101204.28
2022-08-04T00:27:41.277Z,101207.28
2022-08-04T00:30:08.425Z,101212.00
2022-08-04T00:32:35.286Z,101209.63
2022-08-04T00:35:02.245Z,101207.13
2022-08-04T00:37:29.188Z,101207.81
2022-08-04T00:39:56.669Z,101198.97
2022-08-04T00:42:35.453Z,101199.06
2022-08-04T00:46:15.503Z,101206.19
2022-08-04T00:49:04.154Z,101196.41
2022-08-04T00:52:32.396Z,101196.56
2022-08-04T00:55:09.280Z,101192.00
2022-08-04T00:57:47.925Z,101189.03
2022-08-04T01:00:16.097Z,101187.78
2022-08-04T01:03:06.803Z,101190.81
2022-08-04T01:05:45.480Z,101183.00
2022-08-04T01:08:26.175Z,101175.41
2022-08-04T01:11:10.722Z,101174.34
2022-08-04T01:13:43.205Z,101174.31
2022-08-04T01:16:13.147Z,101175.56
2022-08-04T01:19:00.978Z,101167.22
2022-08-04T01:21:30.513Z,101167.00
2022-08-04T01:24:17.984Z,101167.22
2022-08-04T01:27:10.145Z,101170.19
2022-08-04T01:30:03.168Z,101166.78
2022-08-04T01:32:37.212Z,101159.31
2022-08-04T01:35:47.289Z,101155.38
2022-08-04T01:38:30.746Z,101151.19
2022-08-04T01:41:05.042Z,101150.56
2022-08-04T01:43:33.963Z,101147.19
2022-08-04T01:46:02.886Z,101151.47
2022-08-04T01:48:29.944Z,101139.09
2022-08-04T01:51:04.109Z,101151.53
2022-08-04T01:53:33.141Z,101150.16
2022-08-04T01:56:01.145Z,101145.25
2022-08-04T01:58:30.381Z,101156.16
2022-08-04T02:01:02.397Z,101145.88
2022-08-04T02:04:18.921Z,101135.72
2022-08-04T02:06:52.734Z,101135.06
2022-08-04T02:09:54.802Z,101137.69
2022-08-04T02:12:45.518Z,101128.94
2022-08-04T02:15:33.509Z,101127.91
2022-08-04T02:18:21.130Z,101132.16
2022-08-04T02:20:49.328Z,101137.31
2022-08-04T02:23:22.485Z,101127.66
2022-08-04T02:25:56.840Z,101128.59
2022-08-04T02:28:38.591Z,101126.25
2022-08-04T02:31:17.209Z,101122.50
2022-08-04T02:33:46.183Z,101117.94
2022-08-04T02:36:24.552Z,101116.59
2022-08-04T02:38:57.239Z,101116.03
2022-08-04T02:41:26.199Z,101108.47
2022-08-04T02:43:56.304Z,101108.31
2022-08-04T02:46:23.118Z,101106.50
2022-08-04T02:48:51.248Z,101111.28
2022-08-04T02:51:22.125Z,101112.78
2022-08-04T02:53:50.573Z,101108.81
2022-08-04T02:56:19.352Z,101112.19
2022-08-04T02:58:49.896Z,101103.41
2022-08-04T03:01:16.465Z,101097.91
2022-08-04T03:04:24.848Z,101101.47
2022-08-04T03:06:57.878Z,101096.28
2022-08-04T03:09:35.904Z,101088.31
2022-08-04T03:12:11.376Z,101086.69
2022-08-04T03:14:49.994Z,101092.28
2022-08-04T03:17:54.966Z,101089.00
2022-08-04T03:20:39.657Z,101090.84
2022-08-04T03:23:13.340Z,101087.47
2022-08-04T03:26:02.261Z,101093.91
2022-08-04T03:29:16.531Z,101091.91
2022-08-04T03:32:08.961Z,101095.19
2022-08-04T03:34:53.953Z,101089.63
2022-08-04T03:37:33.751Z,101093.94
2022-08-04T03:40:22.025Z,101096.31
2022-08-04T03:43:03.737Z,101093.59
2022-08-04T03:45:39.397Z,101092.53
2022-08-04T03:48:33.171Z,101087.41
2022-08-04T03:51:36.028Z,101090.59
2022-08-04T03:54:24.343Z,101090.25
2022-08-04T03:57:21.528Z,101086.88
2022-08-04T03:59:57.649Z,101086.09
2022-08-04T04:02:51.142Z,101081.75
2022-08-04T04:06:00.049Z,101083.63
2022-08-04T04:09:16.060Z,101077.28
2022-08-04T04:12:00.206Z,101080.53
2022-08-04T04:14:54.668Z,101084.38
2022-08-04T04:17:27.165Z,101085.16
2022-08-04T04:20:12.189Z,101083.81
2022-08-04T04:22:50.341Z,101080.66
2022-08-04T04:25:37.059Z,101076.78
2022-08-04T04:28:45.434Z,101079.50
2022-08-04T04:31:33.494Z,101077.47
2022-08-04T04:34:09.653Z,101075.88
2022-08-04T04:37:01.911Z,101075.28
2022-08-04T04:39:39.115Z,101074.50
2022-08-04T04:42:20.887Z,101073.81
2022-08-04T04:45:09.737Z,101073.81
2022-08-04T04:48:09.090Z,101067.91
2022-08-04T04:50:48.095Z,101071.50
2022-08-04T04:53:24.533Z,101074.94
2022-08-04T04:55:56.285Z,101070.34
2022-08-04T04:58:22.859Z,101070.69
2022-08-04T05:01:08.154Z,101072.16
2022-08-04T05:04:09.915Z,101067.56
2022-08-04T05:06:58.020Z,101069.97
2022-08-04T05:09:30.596Z,101073.28
2022-08-04T05:14:30.805Z,101069.38
2022-08-04T05:15:07.933Z,101070.91
2022-08-04T05:17:38.751Z,101071.31
2022-08-04T05:20:10.346Z,101072.50
2022-08-04T05:22:41.442Z,101063.13
2022-08-04T05:25:27.721Z,101071.94
2022-08-04T05:28:06.903Z,101072.16
2022-08-04T05:30:37.407Z,101070.84
2022-08-04T05:33:08.590Z,101076.81
2022-08-04T05:36:17.853Z,101065.91
2022-08-04T05:38:27.816Z,101068.25
2022-08-04T05:40:55.012Z,101063.44
2022-08-04T05:43:23.658Z,101070.88
2022-08-04T05:45:51.673Z,101060.50
2022-08-04T05:48:18.875Z,101060.19
2022-08-04T05:50:46.408Z,101054.59
2022-08-04T05:53:15.170Z,101052.66
2022-08-04T05:55:48.982Z,101056.25
2022-08-04T05:58:28.798Z,101045.16
2022-08-04T06:00:55.907Z,101047.53
2022-08-04T06:03:23.044Z,101043.00
2022-08-04T06:05:50.087Z,101043.41
2022-08-04T06:08:16.673Z,101032.59
2022-08-04T06:10:45.064Z,101035.34
2022-08-04T06:13:48.957Z,101030.19
2022-08-04T06:16:01.941Z,101030.53
2022-08-04T06:19:57.535Z,101029.75
2022-08-04T06:21:19.142Z,101025.56
2022-08-04T06:24:00.825Z,101028.81
2022-08-04T06:26:30.253Z,101027.25
2022-08-04T06:28:57.255Z,101020.28
2022-08-04T06:32:27.332Z,101027.00
2022-08-04T06:34:30.554Z,101021.69
2022-08-04T06:36:57.412Z,101023.13
2022-08-04T06:39:25.201Z,101026.41
2022-08-04T06:42:02.483Z,101027.72
2022-08-04T06:44:40.853Z,101026.78
2022-08-04T06:47:07.668Z,101018.31
2022-08-04T06:49:55.135Z,101014.63
2022-08-04T06:52:21.670Z,101014.56
2022-08-04T06:54:50.476Z,101022.97
2022-08-04T06:57:22.999Z,101018.50
2022-08-04T06:59:53.682Z,101023.28
2022-08-04T07:02:26.868Z,101018.28
2022-08-04T07:04:53.502Z,101018.13
2022-08-04T07:07:20.656Z,101007.06
2022-08-04T07:10:04.582Z,101017.81
2022-08-04T07:12:32.497Z,101010.19
2022-08-04T07:14:59.380Z,101020.22
2022-08-04T07:17:28.921Z,101007.84
2022-08-04T07:20:01.644Z,101014.72
2022-08-04T07:22:28.721Z,101004.72
2022-08-04T07:24:56.546Z,101001.81
2022-08-04T07:27:48.720Z,100996.22
2022-08-04T07:30:11.067Z,101003.72
2022-08-04T07:32:38.469Z,100994.34
2022-08-04T07:35:06.179Z,100999.22
2022-08-04T07:37:39.058Z,100991.53
2022-08-04T07:40:07.511Z,100999.94
2022-08-04T07:42:34.875Z,100991.88
2022-08-04T07:45:01.438Z,100990.69
2022-08-04T07:47:28.156Z,100987.53
2022-08-04T07:49:57.579Z,100986.28
2022-08-04T07:52:25.970Z,100985.53
2022-08-04T07:54:56.150Z,100987.03
2022-08-04T07:57:41.242Z,100987.53
2022-08-04T08:00:10.665Z,100986.50
2022-08-04T08:02:37.619Z,100980.16
2022-08-04T08:05:04.662Z,100973.34
2022-08-04T08:07:31.196Z,100977.06
2022-08-04T08:09:57.691Z,100971.75
2022-08-04T08:12:36.050Z,100973.34
2022-08-04T08:15:15.784Z,100972.44
2022-08-04T08:17:58.759Z,100977.63
2022-08-04T08:20:29.799Z,100967.75
2022-08-04T08:22:57.265Z,100971.91
2022-08-04T08:25:23.911Z,100971.69
2022-08-04T08:27:56.286Z,100965.53
2022-08-04T08:30:23.997Z,100960.75
2022-08-04T08:32:50.772Z,100962.94
2022-08-04T08:35:17.934Z,100965.78
2022-08-04T08:37:48.797Z,100960.34
2022-08-04T08:40:18.178Z,100946.97
2022-08-04T08:44:00.524Z,100949.59
2022-08-04T08:46:48.098Z,100940.63
2022-08-04T08:50:02.273Z,100939.38
2022-08-04T08:52:57.368Z,100936.38
2022-08-04T08:55:39.797Z,100934.94
2022-08-04T08:58:38.808Z,100928.66
2022-08-04T09:01:23.475Z,100939.38
2022-08-04T09:04:08.895Z,100934.41
2022-08-04T09:06:45.571Z,100928.69
2022-08-04T09:09:21.972Z,100936.97
2022-08-04T09:12:06.913Z,100933.38
2022-08-04T09:14:44.443Z,100934.19
2022-08-04T09:17:22.820Z,100926.72
2022-08-04T09:19:53.687Z,100931.72
2022-08-04T09:22:25.294Z,100939.16
2022-08-04T09:25:25.696Z,100939.91
2022-08-04T09:27:55.563Z,100933.31
2022-08-04T09:30:28.229Z,100941.69
2022-08-04T09:33:08.678Z,100937.00
2022-08-04T09:35:55.688Z,100934.63
2022-08-04T09:38:37.425Z,100937.72
2022-08-04T09:41:49.540Z,100933.25
2022-08-04T09:44:49.830Z,100939.59
2022-08-04T09:47:45.436Z,100929.81
2022-08-04T09:50:19.802Z,100931.28
2022-08-04T09:52:52.550Z,100921.25
2022-08-04T09:55:34.882Z,100923.97
2022-08-04T09:58:15.176Z,100922.16
2022-08-04T10:00:47.242Z,100919.47
2022-08-04T10:03:19.891Z,100915.53
2022-08-04T10:06:01.360Z,100909.84
2022-08-04T10:08:27.806Z,100904.97
2022-08-04T10:11:07.467Z,100914.69
2022-08-04T10:13:58.674Z,100910.63
2022-08-04T10:16:47.567Z,100906.66
2022-08-04T10:19:28.262Z,100903.50
2022-08-04T10:22:29.281Z,100906.66
2022-08-04T10:26:02.844Z,100904.88
2022-08-04T10:28:03.660Z,100887.22
2022-08-04T10:30:33.192Z,100893.97
2022-08-04T10:33:30.251Z,100895.53
2022-08-04T10:36:24.230Z,100887.78
2022-08-04T10:38:57.864Z,100886.16
2022-08-04T10:41:58.329Z,100877.78
2022-08-04T10:44:59.217Z,100877.59
2022-08-04T10:47:34.518Z,100872.50
2022-08-04T10:50:02.965Z,100875.38
2022-08-04T10:52:33.870Z,100868.41
2022-08-04T10:56:06.221Z,100853.31
2022-08-04T10:58:23.764Z,100855.53
2022-08-04T11:01:50.970Z,100860.22
2022-08-04T11:04:32.031Z,100858.97
2022-08-04T11:06:59.558Z,100852.28
2022-08-04T11:09:27.010Z,100859.63
2022-08-04T11:12:00.801Z,100851.88
2022-08-04T11:14:37.665Z,100846.66
2022-08-04T11:17:08.410Z,100852.91
2022-08-04T11:19:42.799Z,100842.09
2022-08-04T11:22:22.982Z,100850.44
2022-08-04T11:25:14.469Z,100852.47
2022-08-04T11:27:50.764Z,100846.00
2022-08-04T11:30:17.957Z,100846.38
2022-08-04T11:33:04.817Z,100841.78
2022-08-04T11:35:35.738Z,100837.34
2022-08-04T11:38:30.431Z,100831.31
2022-08-04T11:41:06.960Z,100840.63
2022-08-04T11:44:01.608Z,100841.00
2022-08-04T11:46:39.977Z,100837.94
2022-08-04T11:49:28.415Z,100832.13
2022-08-04T11:51:56.699Z,100838.06
2022-08-04T11:54:23.289Z,100832.88
2022-08-04T11:56:50.120Z,100832.25
2022-08-04T11:59:17.588Z,100831.69
2022-08-04T12:02:21.018Z,100828.25
2022-08-04T12:04:58.944Z,100819.59
2022-08-04T12:08:03.142Z,100828.59
2022-08-04T12:10:41.080Z,100823.03
2022-08-04T12:13:13.415Z,100829.53
2022-08-04T12:15:52.270Z,100823.94
2022-08-04T12:18:25.141Z,100833.53
2022-08-04T12:20:58.002Z,100823.19
2022-08-04T12:23:31.103Z,100813.81
2022-08-04T12:26:01.567Z,100831.94
2022-08-04T12:29:08.062Z,100816.88
2022-08-04T12:31:29.472Z,100827.03
2022-08-04T12:34:06.640Z,100824.59
2022-08-04T12:36:36.065Z,100820.84
2022-08-04T12:39:11.817Z,100811.47
2022-08-04T12:42:20.842Z,100811.56
2022-08-04T12:44:54.007Z,100808.59
2022-08-04T12:47:29.313Z,100817.50
2022-08-04T12:50:02.312Z,100813.78
2022-08-04T12:52:59.171Z,100809.25
2022-08-04T12:55:21.363Z,100795.38
2022-08-04T12:57:48.196Z,100797.59
2022-08-04T13:00:31.137Z,100790.63
2022-08-04T13:03:05.784Z,100789.69
2022-08-04T13:05:36.872Z,100784.53
2022-08-04T13:08:04.888Z,100788.16
2022-08-04T13:10:31.978Z,100784.59
2022-08-04T13:12:59.752Z,100780.94
2022-08-04T13:15:28.344Z,100780.34
2022-08-04T13:18:02.361Z,100779.41
2022-08-04T13:20:39.422Z,100777.03
2022-08-04T13:23:10.707Z,100776.50
2022-08-04T13:26:43.122Z,100768.28
2022-08-04T13:28:42.856Z,100777.28
2022-08-04T13:31:13.380Z,100768.75
2022-08-04T13:33:45.132Z,100765.38
2022-08-04T13:36:12.625Z,100761.50
2022-08-04T13:38:47.125Z,100749.13
2022-08-04T13:41:13.676Z,100752.38
2022-08-04T13:44:19.177Z,100737.03
2022-08-04T13:46:53.531Z,100743.03
2022-08-04T13:49:42.984Z,100734.63
2022-08-04T13:52:10.888Z,100730.22
2022-08-04T13:54:42.611Z,100731.03
2022-08-04T13:57:30.670Z,100724.72
2022-08-04T14:00:05.072Z,100711.97
2022-08-04T14:02:38.962Z,100719.59
2022-08-04T14:05:18.732Z,100722.31
2022-08-04T14:07:48.030Z,100716.19
2022-08-04T14:10:15.299Z,100716.72
2022-08-04T14:12:51.217Z,100709.06
2022-08-04T14:16:01.133Z,100716.56
2022-08-04T14:18:24.437Z,100722.94
2022-08-04T14:21:01.662Z,100714.72
2022-08-04T14:23:33.252Z,100709.66
2022-08-04T14:26:00.196Z,100720.06
2022-08-04T14:29:08.452Z,100731.16
2022-08-04T14:31:20.106Z,100749.31
2022-08-04T14:34:03.873Z,100756.34
2022-08-04T14:37:16.241Z,100753.81
2022-08-04T14:40:08.425Z,100754.19
2022-08-04T14:42:54.516Z,100753.09
2022-08-04T14:45:38.057Z,100767.75
2022-08-04T14:48:15.380Z,100758.81
2022-08-04T14:50:46.972Z,100765.44
2022-08-04T14:53:18.669Z,100764.47
2022-08-04T14:55:50.331Z,100774.47
2022-08-04T14:58:36.059Z,100786.97
2022-08-04T15:01:11.740Z,100810.03
2022-08-04T15:03:52.185Z,100814.66
2022-08-04T15:06:27.743Z,100821.34
2022-08-04T15:08:56.996Z,100832.00
2022-08-04T15:11:24.655Z,100833.84
2022-08-04T15:13:52.810Z,100845.03
2022-08-04T15:16:20.767Z,100852.31
2022-08-04T15:18:49.177Z,100860.66
2022-08-04T15:21:16.637Z,100856.97
2022-08-04T15:23:43.130Z,100859.41
2022-08-04T15:26:13.457Z,100862.72
2022-08-04T15:28:41.877Z,100851.56
2022-08-04T15:31:11.724Z,100848.75
2022-08-04T15:33:56.502Z,100837.19
2022-08-04T15:36:44.762Z,100841.41
2022-08-04T15:39:45.023Z,100856.13
2022-08-04T15:42:35.470Z,100855.66
2022-08-04T15:45:11.084Z,100851.19
2022-08-04T15:47:37.628Z,100864.91
2022-08-04T15:50:10.564Z,100872.75
2022-08-04T15:53:00.946Z,100874.97
2022-08-04T15:55:38.298Z,100883.19
2022-08-04T15:58:09.783Z,100893.22
2022-08-04T16:00:53.890Z,100917.38
2022-08-04T16:03:58.551Z,100916.50
2022-08-04T16:06:22.325Z,100896.19
2022-08-04T16:08:57.724Z,100911.16
2022-08-04T16:11:34.988Z,100918.41
2022-08-04T16:14:01.680Z,100931.75
2022-08-04T16:16:37.384Z,100946.66
2022-08-04T16:19:16.722Z,100959.72
2022-08-04T16:21:52.230Z,100977.16
2022-08-04T16:24:22.686Z,100991.47
2022-08-04T16:26:54.437Z,100996.69
2022-08-04T16:29:22.803Z,101010.69
2022-08-04T16:32:20.291Z,101023.34
2022-08-04T16:34:54.601Z,101035.88
2022-08-04T16:37:34.115Z,101024.03
2022-08-04T16:40:36.349Z,101012.53
2022-08-04T16:43:09.590Z,100998.78
2022-08-04T16:45:41.064Z,100991.84
2022-08-04T16:48:08.471Z,100989.59
2022-08-04T16:50:47.693Z,100986.81
2022-08-04T16:53:53.281Z,100968.00
2022-08-04T16:56:05.021Z,100974.84
2022-08-04T16:58:34.195Z,100989.06
2022-08-04T17:01:32.341Z,100987.38
2022-08-04T17:04:04.945Z,100980.19
2022-08-04T17:06:40.790Z,100976.38
2022-08-04T17:09:17.331Z,100973.19
2022-08-04T17:11:46.137Z,100964.91
2022-08-04T17:14:13.241Z,100958.19
2022-08-04T17:16:42.357Z,100944.97
2022-08-04T17:19:24.057Z,100933.22
2022-08-04T17:22:02.924Z,100923.63
2022-08-04T17:24:41.223Z,100893.28
2022-08-04T17:28:09.616Z,100897.81
2022-08-04T17:29:54.919Z,100895.50
2022-08-04T17:32:23.055Z,100908.25
2022-08-04T17:34:51.400Z,100906.41
2022-08-04T17:37:39.916Z,100894.94
2022-08-04T17:40:10.761Z,100888.25
2022-08-04T17:42:39.815Z,100895.63
2022-08-04T17:48:09.132Z,100905.34
2022-08-04T17:50:36.772Z,100919.81
2022-08-04T17:55:57.081Z,100918.63
2022-08-04T17:58:24.001Z,100914.00
2022-08-04T18:01:16.630Z,100913.97
2022-08-04T18:03:51.515Z,100915.00
2022-08-04T18:06:18.755Z,100921.31
2022-08-04T18:08:52.365Z,100924.59
2022-08-04T18:11:28.679Z,100926.25
2022-08-04T18:13:57.058Z,100916.25
2022-08-04T18:16:23.896Z,100918.94
2022-08-04T18:19:15.354Z,100933.56
2022-08-04T18:21:46.640Z,100937.97
2022-08-04T18:24:35.950Z,100947.41
2022-08-04T18:27:16.059Z,100956.47
2022-08-04T18:30:15.034Z,100956.88
2022-08-04T18:32:33.126Z,100958.28
2022-08-04T18:35:03.497Z,100967.31
2022-08-04T18:38:06.562Z,100964.75
2022-08-04T18:40:30.168Z,100971.06
2022-08-04T18:43:03.580Z,100971.69
2022-08-04T18:45:34.089Z,100970.25
2022-08-04T18:48:02.093Z,100989.63
2022-08-04T18:50:58.737Z,100987.03
2022-08-04T18:53:17.270Z,101003.50
2022-08-04T18:55:56.904Z,101004.34
2022-08-04T18:58:27.101Z,101001.97
2022-08-04T19:00:55.924Z,101001.19
2022-08-04T19:03:23.420Z,101010.59
2022-08-04T19:05:51.451Z,101014.78
2022-08-04T19:08:33.860Z,101013.94
2022-08-04T19:11:36.926Z,101017.22
2022-08-04T19:13:54.591Z,101020.78
2022-08-04T19:16:25.610Z,101020.03
2022-08-04T19:18:52.244Z,101035.69
2022-08-04T19:21:19.583Z,101033.34
2022-08-04T19:24:27.866Z,101040.00
2022-08-04T19:26:52.903Z,101039.72
2022-08-04T19:29:19.480Z,101042.75
2022-08-04T19:31:47.903Z,101045.47
2022-08-04T19:34:33.097Z,101046.16
2022-08-04T19:37:04.685Z,101053.03
2022-08-04T19:39:31.531Z,101058.75
2022-08-04T19:42:04.714Z,101057.63
2022-08-04T19:44:33.416Z,101062.31
2022-08-04T19:47:00.538Z,101079.16
2022-08-04T19:50:04.461Z,101074.47
2022-08-04T19:52:33.507Z,101069.31
2022-08-04T19:55:10.843Z,101072.13
2022-08-04T19:57:43.983Z,101071.94
2022-08-04T20:00:14.284Z,101068.78
2022-08-04T20:02:41.882Z,101073.13
2022-08-04T20:05:08.911Z,101079.41
2022-08-04T20:07:35.668Z,101078.53
2022-08-04T20:12:55.682Z,101086.47
2022-08-04T20:15:22.521Z,101081.63
2022-08-04T20:18:06.862Z,101091.31
2022-08-04T20:20:35.627Z,101085.53
2022-08-04T20:23:06.882Z,101094.09
2022-08-04T20:25:38.818Z,101099.84
2022-08-04T20:28:05.434Z,101110.28
2022-08-04T20:30:33.279Z,101102.75
2022-08-04T20:33:04.208Z,101096.19
2022-08-04T20:35:32.525Z,101096.38
2022-08-04T20:38:33.744Z,101099.75
2022-08-04T20:41:01.796Z,101096.63
2022-08-04T20:43:31.167Z,101092.88
2022-08-04T20:45:59.351Z,101095.47
2022-08-04T20:48:33.729Z,101091.41
2022-08-04T20:51:00.844Z,101095.88
2022-08-04T20:53:32.780Z,101104.03
2022-08-04T20:56:19.024Z,101105.44
2022-08-04T20:58:56.931Z,101111.56
2022-08-04T21:01:23.464Z,101118.28
2022-08-04T21:04:15.126Z,101122.63
2022-08-04T21:06:55.651Z,101120.81
2022-08-04T21:09:37.586Z,101128.50
2022-08-04T21:12:09.584Z,101117.94
2022-08-04T21:14:36.219Z,101114.41
2022-08-04T21:17:03.911Z,101109.72
2022-08-04T21:19:34.112Z,101108.91
2022-08-04T21:22:04.806Z,101114.31
2022-08-04T21:24:31.282Z,101120.28
2022-08-04T21:26:58.685Z,101125.31
2022-08-04T21:29:29.608Z,101114.75
2022-08-04T21:32:05.965Z,101115.78
2022-08-04T21:34:36.747Z,101120.22
2022-08-04T21:37:06.346Z,101127.47
2022-08-04T21:39:50.810Z,101121.06
2022-08-04T21:42:42.473Z,101113.84
2022-08-04T21:45:09.262Z,101115.31
2022-08-04T21:47:46.643Z,101111.94
2022-08-04T21:50:19.895Z,101107.25
2022-08-04T21:52:48.378Z,101122.94
2022-08-04T21:55:15.622Z,101114.34
2022-08-04T21:57:42.730Z,101122.03
2022-08-04T22:00:18.227Z,101128.06
2022-08-04T22:02:45.214Z,101131.88
2022-08-04T22:05:15.781Z,101130.56
2022-08-04T22:07:47.702Z,101132.78
2022-08-04T22:10:18.577Z,101134.19
2022-08-04T22:12:59.066Z,101143.13
2022-08-04T22:16:03.679Z,101137.59
2022-08-04T22:18:12.124Z,101137.06
2022-08-04T22:20:38.991Z,101131.38
2022-08-04T22:23:16.587Z,101130.31
2022-08-04T22:25:45.005Z,101137.59
2022-08-04T22:28:22.543Z,101136.56
2022-08-04T22:30:54.425Z,101135.59
2022-08-04T22:33:22.900Z,101142.22
2022-08-04T22:35:50.038Z,101149.38
2022-08-04T22:38:31.734Z,101132.47
2022-08-04T22:41:09.269Z,101132.22
2022-08-04T22:43:37.586Z,101128.13
2022-08-04T22:46:09.431Z,101122.91
2022-08-04T22:48:39.593Z,101125.16
2022-08-04T22:51:10.420Z,101136.59
2022-08-04T22:53:39.720Z,101127.88
2022-08-04T22:56:10.774Z,101123.69
2022-08-04T22:58:51.185Z,101128.84
2022-08-04T23:01:18.828Z,101121.38
2022-08-04T23:03:55.057Z,101128.03
2022-08-04T23:06:24.605Z,101117.59
2022-08-04T23:08:51.474Z,101107.25
2022-08-04T23:11:18.260Z,101109.94
2022-08-04T23:13:45.315Z,101100.69
2022-08-04T23:16:12.387Z,101111.47
2022-08-04T23:18:40.021Z,101113.50
2022-08-04T23:21:09.918Z,101112.50
2022-08-04T23:23:37.089Z,101116.34
2022-08-04T23:26:15.809Z,101128.19
2022-08-04T23:28:42.920Z,101131.19
2022-08-04T23:31:10.167Z,101127.50
2022-08-04T23:33:49.359Z,101133.63
2022-08-04T23:36:17.752Z,101147.50
2022-08-04T23:38:44.246Z,101143.09
2022-08-04T23:41:13.828Z,101138.56
2022-08-04T23:43:55.491Z,101141.44
2022-08-04T23:46:22.704Z,101148.09
2022-08-04T23:48:49.219Z,101153.25
2022-08-04T23:51:16.494Z,101151.16
2022-08-04T23:54:01.477Z,101152.63
2022-08-04T23:56:34.138Z,101163.97
2022-08-04T23:59:03.627Z,101167.75
